Time;durP1;ratioP1;P1;durP2;ratioP2;P2;SDS_P1;SDS_P2;PMS_P1;PMS_P2;Temp;Humidity;BMP_temperature;BMP_pressure;BME280_temperature;BME280_humidity;BME280_pressure;Samples;Min_cycle;Max_cycle;Signal;HPM_P1;HPM_P2
2022/11/03 00:03:49;;;;;;;10.07;5.78;;;;;;;16.86;69.69;101811.47;5041552;28;20132;-85
2022/11/03 00:10:13;;;;;;;7.90;6.20;;;;;;;16.95;69.41;101823.28;5049956;28;20040;-85
2022/11/03 00:13:25;;;;;;;9.13;6.22;;;;;;;16.96;69.48;101831.28;5035241;28;20074;-84
2022/11/03 00:15:51;;;;;;;8.85;5.75;;;;;;;16.79;69.56;101795.28;5048633;28;20040;-85
2022/11/03 00:18:16;;;;;;;10.40;6.43;;;;;;;16.87;69.44;101809.78;5048000;28;20025;-85
2022/11/03 00:20:42;;;;;;;8.40;5.85;;;;;;;16.98;69.42;101826.06;5047547;28;20029;-85
2022/11/03 00:23:08;;;;;;;7.40;5.80;;;;;;;16.90;69.61;101809.88;5046154;28;21800;-86
2022/11/03 00:25:33;;;;;;;10.05;5.97;;;;;;;16.76;69.38;101785.47;5044393;28;20065;-85
2022/11/03 00:27:59;;;;;;;10.25;6.28;;;;;;;16.75;69.49;101783.69;5049823;28;20036;-86
2022/11/03 00:30:25;;;;;;;7.22;5.95;;;;;;;16.83;69.52;101798.16;5049178;28;20119;-87
2022/11/03 00:32:50;;;;;;;8.43;5.72;;;;;;;16.87;69.41;101804.50;5039883;28;20483;-87
2022/11/03 00:35:16;;;;;;;8.02;5.80;;;;;;;16.77;69.38;101784.66;5017811;28;20067;-86
2022/11/03 00:37:41;;;;;;;9.90;5.90;;;;;;;16.94;69.38;101818.84;5035404;28;20033;-86
2022/11/03 00:40:09;;;;;;;8.98;6.32;;;;;;;16.76;69.57;101796.03;5019295;28;20037;-85
2022/11/03 00:42:36;;;;;;;9.32;5.93;;;;;;;16.75;69.31;101781.06;5043768;28;20025;-86
2022/11/03 00:45:02;;;;;;;11.27;6.22;;;;;;;16.88;69.10;101809.81;5044852;28;20159;-86
2022/11/03 00:47:27;;;;;;;8.35;5.80;;;;;;;16.52;69.41;101747.47;5028528;28;20116;-86
2022/11/03 00:49:53;;;;;;;8.27;5.88;;;;;;;16.60;69.26;101762.81;5042093;28;20036;-86
2022/11/03 00:52:18;;;;;;;8.63;6.03;;;;;;;16.58;69.26;101753.91;5029332;28;20033;-86
2022/11/03 00:54:44;;;;;;;7.63;5.90;;;;;;;16.48;69.23;101738.50;5050130;28;20033;-86
2022/11/03 00:57:09;;;;;;;8.38;5.93;;;;;;;16.85;69.27;101808.78;5047702;28;20049;-85
2022/11/03 00:59:35;;;;;;;8.23;5.78;;;;;;;16.55;69.37;101764.34;5051494;28;20028;-86
2022/11/03 01:02:01;;;;;;;12.15;6.38;;;;;;;16.58;68.99;101775.00;5048244;28;20044;-86
2022/11/03 01:07:10;;;;;;;6.82;5.68;;;;;;;16.79;69.25;101819.03;5037400;28;20032;-85
2022/11/03 01:09:38;;;;;;;10.73;6.15;;;;;;;16.96;69.36;101848.84;5050354;28;20025;-87
2022/11/03 01:12:08;;;;;;;7.55;5.88;;;;;;;16.84;69.31;101815.78;5030474;28;20486;-86
2022/11/03 01:14:35;;;;;;;9.75;6.18;;;;;;;16.98;69.20;101855.09;5046711;28;20033;-86
2022/11/03 01:17:04;;;;;;;8.68;5.88;;;;;;;16.95;69.24;101847.94;5027008;28;20056;-86
2022/11/03 01:19:29;;;;;;;11.20;6.25;;;;;;;16.85;69.10;101830.78;5032091;28;20044;-86
2022/11/03 01:21:55;;;;;;;8.73;5.68;;;;;;;16.95;69.27;101837.38;5032615;28;20029;-84
2022/11/03 01:24:21;;;;;;;9.00;6.00;;;;;;;16.85;69.27;101828.16;5057190;28;20038;-86
2022/11/03 01:26:47;;;;;;;7.85;5.47;;;;;;;16.89;69.05;101824.81;5050337;28;20492;-85
2022/11/03 01:29:12;;;;;;;7.55;5.68;;;;;;;16.89;69.32;101829.22;5022480;28;20086;-86
2022/11/03 01:31:38;;;;;;;7.90;5.63;;;;;;;16.74;69.32;101810.88;5032063;28;20076;-86
2022/11/03 01:34:03;;;;;;;7.47;5.80;;;;;;;16.83;69.43;101811.34;5048228;28;20047;-86
2022/11/03 01:36:29;;;;;;;9.20;5.93;;;;;;;16.79;69.20;101811.13;5042030;28;20036;-86
2022/11/03 01:38:55;;;;;;;7.95;6.03;;;;;;;16.92;69.52;101841.63;5033303;28;20025;-86
2022/11/03 01:41:24;;;;;;;10.15;5.68;;;;;;;16.85;69.50;101832.53;5019880;28;20036;-87
2022/11/03 01:44:11;;;;;;;9.98;5.97;;;;;;;16.94;69.24;101854.06;5015285;28;20494;-86
2022/11/03 01:46:45;;;;;;;9.07;5.90;;;;;;;16.97;69.17;101864.72;5053864;28;20082;-86
2022/11/03 01:49:18;;;;;;;8.75;6.10;;;;;;;16.85;69.38;101857.19;5046854;28;20477;-86
2022/11/03 01:51:47;;;;;;;9.20;6.10;;;;;;;16.52;69.10;101787.00;5019327;28;20036;-86
2022/11/03 01:54:16;;;;;;;13.05;6.50;;;;;;;16.74;69.12;101834.63;5030475;28;20029;-86
2022/11/03 01:56:45;;;;;;;9.57;5.68;;;;;;;16.54;69.18;101809.09;5049549;28;20025;-86
2022/11/03 01:59:12;;;;;;;9.15;6.43;;;;;;;16.52;69.51;101798.47;5027173;28;20017;-86
2022/11/03 02:01:38;;;;;;;11.90;6.20;;;;;;;16.61;69.57;101819.97;5043953;28;20085;-86
2022/11/03 02:04:11;;;;;;;8.52;6.40;;;;;;;16.84;69.45;101868.53;5035293;28;20025;-86
2022/11/03 02:06:37;;;;;;;9.45;6.50;;;;;;;16.68;69.56;101839.66;5032185;28;20033;-87
2022/11/03 02:09:04;;;;;;;8.85;5.97;;;;;;;16.87;69.45;101867.81;5033951;28;20028;-86
2022/11/03 02:14:15;;;;;;;9.70;5.95;;;;;;;16.74;69.63;101846.91;5022165;28;20098;-86
2022/11/03 02:16:44;;;;;;;9.10;6.55;;;;;;;16.42;69.50;101814.69;5044064;28;20029;-86
2022/11/03 02:19:41;;;;;;;9.05;6.28;;;;;;;16.84;69.60;101879.09;5033894;28;20029;-87
2022/11/03 02:22:24;;;;;;;8.48;6.38;;;;;;;16.87;69.53;101883.63;5011941;28;20065;-86
2022/11/03 02:24:56;;;;;;;9.50;5.90;;;;;;;16.82;69.62;101879.88;5048075;28;20041;-87
2022/11/03 02:27:22;;;;;;;10.25;6.53;;;;;;;16.72;69.81;101873.25;5021496;28;20039;-85
2022/11/03 02:29:47;;;;;;;8.50;6.15;;;;;;;16.81;69.55;101888.63;5030900;28;20032;-85
2022/11/03 02:32:27;;;;;;;7.68;5.80;;;;;;;16.84;69.75;101891.41;5021304;28;20415;-86
2022/11/03 02:35:05;;;;;;;8.27;6.22;;;;;;;16.80;69.78;101890.34;5035495;28;20470;-86
2022/11/03 02:37:36;;;;;;;11.52;6.53;;;;;;;16.69;69.95;101875.72;5038206;28;20116;-85
2022/11/03 02:40:08;;;;;;;9.20;6.07;;;;;;;16.79;69.87;101893.78;5017943;28;20475;-85
2022/11/03 02:42:35;;;;;;;9.48;6.35;;;;;;;16.71;69.68;101879.34;5052111;28;20036;-86
2022/11/03 02:45:03;;;;;;;10.55;6.65;;;;;;;16.78;69.87;101904.25;5028175;28;20127;-85
2022/11/03 02:47:29;;;;;;;8.05;5.90;;;;;;;16.71;69.94;101895.16;5041996;28;20425;-85
2022/11/03 02:49:56;;;;;;;8.70;6.25;;;;;;;16.63;70.03;101888.63;5023554;28;20029;-86
2022/11/03 02:52:37;;;;;;;9.02;6.18;;;;;;;16.76;70.05;101912.09;5021947;28;20035;-85
2022/11/03 02:55:18;;;;;;;7.55;5.88;;;;;;;16.74;69.88;101905.84;5032851;28;20032;-85
2022/11/03 02:57:52;;;;;;;10.13;5.97;;;;;;;16.67;70.06;101898.50;5027104;28;20028;-86
2022/11/03 03:00:18;;;;;;;8.35;6.15;;;;;;;16.72;70.14;101897.00;5047121;28;20040;-85
2022/11/03 03:03:05;;;;;;;8.10;6.05;;;;;;;16.43;69.75;101838.50;5030867;28;20029;-86
2022/11/03 03:05:33;;;;;;;9.35;6.25;;;;;;;16.77;69.57;101895.47;5027035;28;20032;-86
2022/11/03 03:08:01;;;;;;;9.27;5.88;;;;;;;16.78;69.84;101907.78;5018629;28;20047;-85
2022/11/03 03:10:32;;;;;;;9.27;5.95;;;;;;;16.80;69.77;101902.59;5034498;28;20379;-85
2022/11/03 03:12:59;;;;;;;10.60;6.15;;;;;;;16.76;70.03;101904.19;5038196;28;20036;-85
2022/11/03 03:15:49;;;;;;;10.32;6.22;;;;;;;16.67;70.00;101888.81;5034376;28;20033;-86
2022/11/03 03:18:55;;;;;;;7.65;5.82;;;;;;;16.67;70.12;101891.47;5045372;28;20037;-86
2022/11/03 03:21:26;;;;;;;9.13;6.10;;;;;;;16.71;70.11;101908.34;5049254;28;20108;-85
2022/11/03 03:24:00;;;;;;;8.15;6.00;;;;;;;16.29;70.08;101845.72;5027863;28;20053;-85
2022/11/03 03:26:33;;;;;;;9.40;5.80;;;;;;;16.65;70.15;101915.97;5014987;28;20521;-86
2022/11/03 03:29:06;;;;;;;7.78;5.78;;;;;;;16.68;70.02;101927.59;5015072;28;20036;-85
2022/11/03 03:31:34;;;;;;;9.52;6.68;;;;;;;16.75;69.80;101947.22;5012636;28;20036;-85
2022/11/03 03:34:00;;;;;;;8.38;6.28;;;;;;;16.67;70.08;101940.69;5036581;28;20029;-86
2022/11/03 03:36:27;;;;;;;8.82;6.55;;;;;;;16.37;69.71;101883.00;5023782;28;20387;-86
2022/11/03 03:38:56;;;;;;;7.50;5.85;;;;;;;16.73;70.11;101946.25;5002523;28;20567;-85
2022/11/03 03:41:23;;;;;;;7.55;6.30;;;;;;;16.62;69.85;101927.28;5006676;28;20025;-85
2022/11/03 03:43:54;;;;;;;10.77;6.53;;;;;;;16.71;70.08;101940.00;4998493;28;20033;-86
2022/11/03 03:46:21;;;;;;;8.88;6.80;;;;;;;16.73;70.01;101929.53;5015014;28;20035;-86
2022/11/03 03:48:47;;;;;;;9.60;6.57;;;;;;;16.46;69.93;101880.81;5026726;28;20029;-86
2022/11/03 03:51:13;;;;;;;8.40;6.25;;;;;;;16.72;69.96;101925.06;5013745;28;20095;-86
2022/11/03 03:53:39;;;;;;;9.23;6.13;;;;;;;16.60;69.89;101902.56;5011199;28;20035;-86
2022/11/03 03:56:05;;;;;;;8.63;6.07;;;;;;;16.61;70.21;101912.28;5037172;28;20025;-86
2022/11/03 03:58:31;;;;;;;8.15;5.93;;;;;;;16.64;69.88;101915.06;5014831;28;20029;-86
2022/11/03 04:00:56;;;;;;;8.55;6.20;;;;;;;16.51;70.16;101885.41;5030314;28;20072;-87
2022/11/03 04:03:24;;;;;;;8.63;6.45;;;;;;;16.67;69.97;101923.13;5018413;28;20036;-86
2022/11/03 04:05:52;;;;;;;10.02;6.28;;;;;;;16.58;69.98;101892.78;5020556;28;20065;-85
2022/11/03 04:08:17;;;;;;;10.23;6.47;;;;;;;16.74;69.85;101902.31;5015567;28;20495;-86
2022/11/03 04:24:24;;;;;;;8.20;6.03;;;;;;;16.68;69.88;101901.22;5018637;28;20102;-86
2022/11/03 04:26:50;;;;;;;8.82;5.60;;;;;;;16.58;70.02;101883.13;5036468;28;20120;-86
2022/11/03 04:29:15;;;;;;;11.48;6.63;;;;;;;16.62;69.89;101898.28;5022175;28;20501;-86
2022/11/03 04:31:41;;;;;;;8.07;6.03;;;;;;;16.60;69.90;101894.66;5027310;28;20681;-86
2022/11/03 04:34:11;;;;;;;7.43;5.80;;;;;;;16.71;70.05;101918.91;5048567;28;20730;-86
2022/11/03 04:36:36;;;;;;;7.95;6.30;;;;;;;16.58;70.16;101908.63;5024203;28;20037;-86
2022/11/03 04:39:13;;;;;;;8.55;6.28;;;;;;;16.48;70.04;101900.25;5034371;28;20048;-86
2022/11/03 04:41:39;;;;;;;7.60;6.00;;;;;;;16.61;69.91;101911.38;5029014;28;20459;-86
2022/11/03 04:44:10;;;;;;;11.63;6.55;;;;;;;16.64;69.85;101922.09;5017539;28;20066;-86
2022/11/03 04:46:36;;;;;;;11.32;6.38;;;;;;;16.67;69.87;101936.31;5051600;28;20040;-87
2022/11/03 04:49:03;;;;;;;7.35;5.90;;;;;;;16.64;69.89;101943.19;5038114;28;20025;-86
2022/11/03 04:51:32;;;;;;;9.30;6.72;;;;;;;16.71;69.81;101949.66;5047253;28;20494;-87
2022/11/03 04:54:01;;;;;;;9.40;5.80;;;;;;;16.43;70.04;101912.31;5034425;28;20024;-87
2022/11/03 04:56:27;;;;;;;9.50;6.00;;;;;;;16.42;69.99;101917.50;5062555;28;20055;-87
2022/11/03 04:58:53;;;;;;;8.82;6.25;;;;;;;16.72;69.81;101956.72;5027389;28;20068;-86
2022/11/03 05:01:21;;;;;;;11.52;6.43;;;;;;;16.34;70.06;101893.44;5030040;28;20094;-87
2022/11/03 05:03:49;;;;;;;8.45;6.13;;;;;;;16.51;69.88;101935.50;5032826;28;20421;-88
2022/11/03 05:06:17;;;;;;;8.00;5.75;;;;;;;16.34;69.97;101905.69;5060515;28;20028;-87
2022/11/03 05:08:45;;;;;;;9.45;6.22;;;;;;;16.60;69.99;101962.34;5012798;28;20036;-87
2022/11/03 05:11:16;;;;;;;8.30;5.90;;;;;;;16.41;70.05;101932.44;5015778;28;20414;-87
2022/11/03 05:13:41;;;;;;;9.63;6.05;;;;;;;16.33;69.96;101919.69;5035295;28;20040;-87
2022/11/03 05:16:08;;;;;;;8.73;6.20;;;;;;;16.58;69.98;101964.88;5034700;28;20037;-86
2022/11/03 05:18:38;;;;;;;8.15;5.82;;;;;;;16.44;70.15;101937.84;5015736;28;20116;-88
2022/11/03 05:21:09;;;;;;;9.48;5.95;;;;;;;16.32;69.98;101928.41;5032839;28;20770;-87
2022/11/03 05:23:40;;;;;;;9.07;6.78;;;;;;;16.59;70.08;101990.41;5021034;28;20050;-86
2022/11/03 05:26:33;;;;;;;7.40;5.57;;;;;;;16.56;69.89;101979.72;5017609;28;20025;-86
2022/11/03 05:28:59;;;;;;;8.75;6.57;;;;;;;16.65;69.97;102003.91;5034324;28;20041;-85
2022/11/03 05:31:26;;;;;;;;;;;;;;;16.64;69.93;102006.50;5016673;28;20087;-88
2022/11/03 05:33:54;;;;;;;7.82;6.00;;;;;;;16.42;70.05;101976.41;5044762;28;19956;-87
2022/11/03 05:36:22;;;;;;;10.15;6.57;;;;;;;16.53;70.16;101995.41;4996296;28;20115;-84
2022/11/03 05:38:48;;;;;;;9.88;5.90;;;;;;;16.53;70.11;102003.34;4995700;28;20028;-86
2022/11/03 05:41:20;;;;;;;8.73;5.93;;;;;;;16.26;70.14;101960.69;5017266;28;20039;-85
2022/11/03 05:44:18;;;;;;;9.07;6.38;;;;;;;16.46;69.99;101988.00;5037598;28;20413;-85
2022/11/03 05:46:43;;;;;;;8.32;6.10;;;;;;;16.63;70.04;102025.75;5024871;28;20089;-84
2022/11/03 05:49:09;;;;;;;9.70;6.15;;;;;;;16.54;70.10;102018.31;5029377;28;20056;-83
2022/11/03 05:51:39;;;;;;;8.68;6.00;;;;;;;16.52;69.92;102012.06;5030501;28;20084;-83
2022/11/03 05:54:06;;;;;;;9.98;6.45;;;;;;;16.53;70.09;102023.50;5014330;28;20029;-83
2022/11/03 05:56:34;;;;;;;10.13;6.45;;;;;;;16.33;70.08;101983.88;5007324;28;20084;-83
2022/11/03 05:59:00;;;;;;;9.23;6.45;;;;;;;16.50;70.02;102016.34;4996715;28;20021;-85
2022/11/03 06:01:34;;;;;;;8.70;5.95;;;;;;;16.61;70.08;102037.97;5012404;28;20554;-84
2022/11/03 06:04:06;;;;;;;9.40;6.47;;;;;;;16.56;70.27;102034.22;5016504;28;20029;-86
2022/11/03 06:06:35;;;;;;;9.05;6.63;;;;;;;16.60;70.27;102052.00;5014108;28;20033;-85
2022/11/03 06:09:03;;;;;;;9.65;6.70;;;;;;;16.60;70.14;102052.91;5015354;28;20030;-86
2022/11/03 06:11:34;;;;;;;10.25;6.22;;;;;;;16.63;70.05;102049.50;5016472;28;20041;-86
2022/11/03 06:14:01;;;;;;;10.13;6.70;;;;;;;16.61;70.09;102064.34;5029415;28;20490;-86
2022/11/03 06:16:41;;;;;;;10.38;5.78;;;;;;;16.53;70.29;102050.78;5048447;28;20025;-86
2022/11/03 06:19:28;;;;;;;11.23;6.45;;;;;;;16.61;70.03;102074.91;5022103;28;20029;-89
2022/11/03 06:21:57;;;;;;;8.40;5.85;;;;;;;16.58;70.32;102077.41;5033981;28;20079;-87
2022/11/03 06:24:26;;;;;;;9.30;6.18;;;;;;;16.55;70.09;102064.03;5016378;28;20608;-87
2022/11/03 06:26:51;;;;;;;7.90;5.95;;;;;;;16.54;70.06;102071.06;5016990;28;20025;-87
2022/11/03 06:29:18;;;;;;;7.68;6.30;;;;;;;16.49;69.70;102051.47;5034071;28;20034;-88
2022/11/03 06:31:47;;;;;;;9.80;6.03;;;;;;;16.46;69.71;102048.66;5032639;28;20055;-87
2022/11/03 06:34:29;;;;;;;9.65;6.15;;;;;;;16.27;70.15;102020.47;5015987;28;20029;-90
2022/11/03 06:36:56;;;;;;;11.07;6.05;;;;;;;16.49;70.14;102060.28;5030465;28;20029;-89
2022/11/03 06:39:23;;;;;;;8.32;5.70;;;;;;;16.33;70.08;102031.31;5000309;28;20025;-89
2022/11/03 06:41:50;;;;;;;8.63;5.78;;;;;;;16.63;69.92;102082.06;5025974;28;20502;-88
2022/11/03 06:44:29;;;;;;;8.77;6.15;;;;;;;16.35;69.81;102034.94;5016837;28;20033;-89
2022/11/03 06:46:57;;;;;;;7.97;6.10;;;;;;;16.69;69.76;102079.72;5023200;28;20030;-89
2022/11/03 06:49:27;;;;;;;8.52;5.60;;;;;;;16.71;69.70;102078.91;5016204;28;20025;-90
2022/11/03 06:51:56;;;;;;;10.13;6.00;;;;;;;16.45;69.69;102033.69;5032884;28;20029;-88
2022/11/03 06:54:22;;;;;;;8.82;5.97;;;;;;;16.71;69.83;102086.81;5039033;28;20478;-88
2022/11/03 06:56:47;;;;;;;9.48;6.13;;;;;;;16.56;69.82;102068.50;5010612;28;20038;-87
2022/11/03 06:59:15;;;;;;;8.68;5.93;;;;;;;16.50;69.70;102058.53;5029115;28;20457;-88
2022/11/03 07:01:41;;;;;;;9.40;5.70;;;;;;;16.69;69.40;102077.09;5013939;28;20041;-87
2022/11/03 07:04:36;;;;;;;9.90;6.30;;;;;;;16.66;69.72;102076.06;5011913;28;20033;-88
2022/11/03 07:07:02;;;;;;;8.57;6.03;;;;;;;16.79;69.36;102096.03;5005210;28;20099;-87
2022/11/03 07:09:27;;;;;;;8.63;6.05;;;;;;;16.56;69.64;102063.22;5032525;28;20041;-88
2022/11/03 07:11:59;;;;;;;8.98;5.65;;;;;;;16.63;69.35;102062.69;5034905;28;20042;-90
2022/11/03 07:14:31;;;;;;;7.70;5.63;;;;;;;16.63;69.35;102058.31;4998942;28;20032;-88
2022/11/03 07:17:01;;;;;;;7.10;5.78;;;;;;;16.71;69.46;102086.81;4994854;28;20044;-88
2022/11/03 07:19:41;;;;;;;8.13;5.63;;;;;;;16.41;69.46;102034.34;5010676;28;20032;-88
2022/11/03 07:22:19;;;;;;;9.60;5.90;;;;;;;16.57;69.79;102079.09;5002234;28;20094;-89
2022/11/03 07:24:46;;;;;;;8.27;5.75;;;;;;;16.75;69.65;102105.53;5019516;28;20045;-87
2022/11/03 07:27:25;;;;;;;7.30;5.68;;;;;;;16.77;69.42;102102.97;5033564;28;20029;-88
2022/11/03 07:29:56;;;;;;;9.75;6.20;;;;;;;16.53;69.46;102063.97;5032140;28;20021;-87
2022/11/03 07:32:25;;;;;;;7.90;5.75;;;;;;;16.41;69.42;102045.78;5028864;28;20017;-87
2022/11/03 07:34:52;;;;;;;7.80;5.95;;;;;;;16.77;69.40;102111.78;5018093;28;20024;-88
2022/11/03 07:37:20;;;;;;;7.68;5.80;;;;;;;16.36;69.57;102042.03;5026399;28;20020;-88
2022/11/03 07:39:45;;;;;;;8.32;6.03;;;;;;;16.60;69.47;102087.19;5016034;28;20021;-88
2022/11/03 07:42:18;;;;;;;8.30;5.70;;;;;;;16.79;69.37;102111.88;5004141;28;20025;-89
2022/11/03 07:44:44;;;;;;;7.05;5.30;;;;;;;16.40;69.38;102048.34;5016511;28;20025;-86
2022/11/03 07:47:21;;;;;;;7.43;5.70;;;;;;;16.81;69.44;102118.16;5038892;28;20047;-95
2022/11/03 07:49:58;;;;;;;8.20;5.65;;;;;;;16.76;69.32;102120.50;5015042;28;20415;-94
2022/11/03 07:52:33;;;;;;;8.18;5.90;;;;;;;16.80;69.02;102126.84;5002479;28;20018;-94
2022/11/03 07:54:59;;;;;;;8.38;6.20;;;;;;;16.83;69.20;102127.94;5018331;28;20036;-93
2022/11/03 07:57:36;;;;;;;7.60;5.55;;;;;;;16.80;69.51;102127.78;5014119;28;20021;-93
2022/11/03 08:03:12;;;;;;;8.70;5.93;;;;;;;16.83;69.26;102127.06;5033170;28;19909;-94
2022/11/03 08:05:53;;;;;;;7.85;5.85;;;;;;;16.81;69.37;102123.44;5031982;28;20044;-96
2022/11/03 08:08:19;;;;;;;8.70;6.07;;;;;;;16.83;69.34;102125.31;5032041;28;20464;-92
2022/11/03 08:10:46;;;;;;;6.78;5.55;;;;;;;16.74;69.41;102105.44;5034702;28;20026;-90
2022/11/03 08:13:13;;;;;;;9.35;5.70;;;;;;;16.61;69.37;102088.09;5033957;28;20104;-91
2022/11/03 08:15:38;;;;;;;9.23;6.03;;;;;;;16.47;69.28;102066.31;5016795;28;20049;-90
2022/11/03 08:18:05;;;;;;;8.05;5.82;;;;;;;16.82;69.46;102125.22;5022401;28;20014;-90
2022/11/03 08:20:56;;;;;;;8.85;5.60;;;;;;;16.82;69.25;102127.88;5025007;28;20033;-92
2022/11/03 08:23:22;;;;;;;8.00;5.88;;;;;;;16.69;69.64;102107.84;5040222;28;20040;-91
2022/11/03 08:25:47;;;;;;;9.98;5.75;;;;;;;16.76;69.17;102112.59;5027223;28;20106;-92
2022/11/03 08:28:13;;;;;;;8.35;6.05;;;;;;;16.70;69.02;102101.75;5052224;28;20040;-91
2022/11/03 08:30:45;;;;;;;9.32;5.95;;;;;;;16.81;69.36;102126.06;5036898;28;20029;-92
2022/11/03 08:33:11;;;;;;;8.65;5.70;;;;;;;16.84;69.41;102135.03;5024997;28;20091;-91
2022/11/03 08:35:52;;;;;;;7.80;5.85;;;;;;;16.84;69.10;102127.09;5019831;28;20024;-92
2022/11/03 08:38:31;;;;;;;8.27;6.15;;;;;;;16.84;69.40;102129.75;5009041;28;20021;-92
2022/11/03 08:41:14;;;;;;;8.30;5.82;;;;;;;16.73;69.12;102107.16;5038096;28;20033;-92
2022/11/03 08:43:56;;;;;;;8.90;5.68;;;;;;;16.80;69.20;102118.94;5051358;28;20500;-92
2022/11/03 08:49:55;;;;;;;9.40;5.90;;;;;;;16.80;69.14;102113.66;5037493;28;20067;-93
2022/11/03 08:52:23;;;;;;;11.20;5.88;;;;;;;16.89;69.01;102120.34;5044362;28;20040;-92
2022/11/03 08:55:16;;;;;;;10.48;6.13;;;;;;;16.93;69.12;102117.84;5017878;28;20021;-92
2022/11/03 08:57:42;;;;;;;9.23;6.60;;;;;;;16.63;68.96;102062.69;5045739;28;20052;-93
2022/11/03 09:00:27;;;;;;;8.88;5.78;;;;;;;16.94;68.95;102112.66;5032451;28;20071;-94
2022/11/03 09:02:55;;;;;;;8.93;6.20;;;;;;;16.92;69.07;102102.84;5023229;28;20028;-94
2022/11/03 09:05:27;;;;;;;7.75;5.85;;;;;;;16.93;68.87;102109.94;5032364;28;20021;-93
2022/11/03 09:08:15;;;;;;;9.52;6.07;;;;;;;16.97;69.04;102104.88;5030771;28;20405;-93
2022/11/03 09:10:41;;;;;;;10.30;6.80;;;;;;;16.89;69.26;102095.69;5036368;28;20043;-93
2022/11/03 09:13:08;;;;;;;10.27;7.07;;;;;;;16.76;68.68;102091.47;5020177;28;20020;-91
2022/11/03 09:15:41;;;;;;;9.52;6.28;;;;;;;16.73;69.16;102079.91;5018483;28;20036;-93
2022/11/03 09:18:21;;;;;;;7.60;5.85;;;;;;;16.76;69.21;102080.03;5018711;28;20551;-94
2022/11/03 09:20:55;;;;;;;10.50;5.75;;;;;;;16.69;69.21;102063.91;5031933;28;20659;-94
2022/11/03 09:23:21;;;;;;;10.55;6.68;;;;;;;16.80;67.83;102088.22;5047122;28;20025;-93
2022/11/03 09:25:52;;;;;;;9.88;6.38;;;;;;;16.64;68.69;102065.41;5012404;28;20028;-93
2022/11/03 09:28:23;;;;;;;10.15;6.53;;;;;;;16.80;68.84;102080.28;5032903;28;20021;-92
2022/11/03 09:30:51;;;;;;;10.70;6.60;;;;;;;16.77;68.25;102092.41;5051822;28;20020;-93
2022/11/03 09:33:20;;;;;;;12.07;6.57;;;;;;;16.74;68.74;102073.78;5015683;28;20033;-94
2022/11/03 09:36:09;;;;;;;11.77;6.70;;;;;;;16.83;68.69;102087.47;5057831;28;20032;-92
2022/11/03 09:38:34;;;;;;;10.68;6.00;;;;;;;16.75;68.86;102070.31;5041770;28;20056;-91
2022/11/03 09:41:07;;;;;;;11.25;6.57;;;;;;;16.68;68.36;102061.22;5049680;28;20121;-92
2022/11/03 09:43:34;;;;;;;18.52;6.90;;;;;;;16.78;69.33;102079.28;5025302;28;20051;-90
2022/11/03 09:46:06;;;;;;;10.38;6.50;;;;;;;16.83;68.30;102088.38;5047605;28;20017;-90
2022/11/03 09:48:32;;;;;;;10.93;6.50;;;;;;;16.69;68.66;102044.53;5015901;28;20490;-91
2022/11/03 09:51:08;;;;;;;10.98;6.13;;;;;;;16.85;69.04;102072.63;5021261;28;20064;-91
2022/11/03 09:53:33;;;;;;;13.00;6.55;;;;;;;16.89;69.03;102067.56;5020515;28;20477;-91
2022/11/03 09:55:59;;;;;;;11.38;6.72;;;;;;;16.88;69.35;102076.31;5034707;28;20025;-91
2022/11/03 09:58:37;;;;;;;12.85;6.68;;;;;;;16.83;69.21;102047.91;5068389;28;20387;-91
2022/11/03 10:01:25;;;;;;;11.35;7.05;;;;;;;17.02;69.13;102061.16;5050451;28;20032;-92
2022/11/03 10:04:00;;;;;;;16.92;7.00;;;;;;;16.93;68.95;102052.78;5048836;28;20056;-91
2022/11/03 10:07:03;;;;;;;12.07;6.20;;;;;;;17.01;69.12;102054.06;5034814;28;20470;-93
2022/11/03 10:09:54;;;;;;;18.98;6.43;;;;;;;17.05;69.16;102052.47;5020788;28;20030;-92
2022/11/03 10:12:24;;;;;;;12.18;6.18;;;;;;;16.86;67.91;102048.94;5044451;28;20468;-93
2022/11/03 10:15:22;;;;;;;13.55;6.18;;;;;;;16.88;68.71;102049.03;5029522;28;20060;-92
2022/11/03 10:18:05;;;;;;;14.55;6.55;;;;;;;16.85;68.68;102039.22;5047383;28;20413;-93
2022/11/03 10:20:33;;;;;;;9.48;6.50;;;;;;;16.87;68.44;102031.41;5036875;28;20060;-91
2022/11/03 10:23:00;;;;;;;11.60;6.72;;;;;;;16.92;69.00;102043.06;5051076;28;20410;-90
2022/11/03 10:25:35;;;;;;;21.58;7.15;;;;;;;16.95;69.42;102048.47;5047904;28;20167;-92
2022/11/03 10:28:19;;;;;;;11.10;6.45;;;;;;;16.97;69.07;102041.53;5025254;28;20030;-92
2022/11/03 10:30:54;;;;;;;16.83;6.95;;;;;;;16.81;68.58;102017.91;5050876;28;20027;-91
2022/11/03 10:33:40;;;;;;;10.60;6.75;;;;;;;16.93;68.38;102044.84;5034792;28;20032;-91
2022/11/03 10:36:16;;;;;;;10.57;6.78;;;;;;;16.97;69.28;102016.88;5032993;28;20013;-90
2022/11/03 10:38:43;;;;;;;12.27;6.57;;;;;;;16.79;69.76;101995.78;5024172;28;20029;-91
2022/11/03 10:41:15;;;;;;;;;;;;;;;17.03;69.95;102039.19;5028824;28;20056;-91
2022/11/03 10:43:58;;;;;;;10.80;6.30;;;;;;;16.75;69.21;101978.00;5008830;28;19909;-91
2022/11/03 10:46:25;;;;;;;14.35;6.55;;;;;;;16.74;69.45;101977.06;5022755;28;20111;-91
2022/11/03 10:49:10;;;;;;;11.25;7.00;;;;;;;17.05;69.44;102028.72;5025130;28;20554;-91
2022/11/03 10:51:37;;;;;;;11.35;6.50;;;;;;;16.92;69.58;102007.88;5034802;28;20034;-90
2022/11/03 10:54:04;;;;;;;10.35;6.28;;;;;;;17.04;70.09;102019.91;5021274;28;20022;-91
2022/11/03 10:56:34;;;;;;;9.75;6.30;;;;;;;16.91;70.10;102004.28;5034717;28;20511;-92
2022/11/03 10:58:59;;;;;;;10.75;6.63;;;;;;;16.74;70.00;101969.16;5022242;28;20437;-91
2022/11/03 11:01:26;;;;;;;9.45;6.53;;;;;;;16.96;70.01;102000.16;5017156;28;20022;-91
2022/11/03 11:03:52;;;;;;;11.18;7.05;;;;;;;16.84;70.29;101987.28;5026600;28;20066;-90
2022/11/03 11:06:20;;;;;;;9.77;6.35;;;;;;;17.09;70.18;102014.84;5032576;28;20029;-89
2022/11/03 11:08:52;;;;;;;11.38;6.80;;;;;;;16.96;70.12;102016.00;5054381;28;20025;-90
2022/11/03 11:11:21;;;;;;;11.13;6.90;;;;;;;16.91;69.94;101999.03;5016772;28;20029;-90
2022/11/03 11:14:21;;;;;;;10.18;6.38;;;;;;;17.06;70.25;102012.97;5037051;28;20057;-90
2022/11/03 11:16:54;;;;;;;11.45;6.82;;;;;;;17.05;70.81;102010.25;5054145;28;20021;-88
2022/11/03 11:19:23;;;;;;;9.02;6.75;;;;;;;16.92;70.56;101981.47;5041560;28;20071;-92
2022/11/03 11:21:52;;;;;;;10.60;7.00;;;;;;;17.06;70.91;102010.31;5032572;28;20060;-91
2022/11/03 11:24:42;;;;;;;10.82;6.90;;;;;;;17.06;70.80;102009.44;5034116;28;20042;-90
2022/11/03 11:27:47;;;;;;;14.27;7.13;;;;;;;17.14;70.48;101996.56;5036911;28;20032;-90
2022/11/03 11:30:19;;;;;;;10.82;6.53;;;;;;;17.19;70.06;102003.00;5054618;28;20033;-91
2022/11/03 11:32:45;;;;;;;10.52;6.95;;;;;;;17.13;70.29;101993.03;5037686;28;20182;-90
2022/11/03 11:35:16;;;;;;;10.98;7.22;;;;;;;17.08;70.29;101990.19;5039607;28;20056;-89
2022/11/03 11:37:43;;;;;;;12.15;7.35;;;;;;;16.93;70.44;101960.41;5034917;28;20033;-90
2022/11/03 11:40:23;;;;;;;;;;;;;;;17.10;70.42;101984.97;5019912;28;20426;-90
2022/11/03 11:43:03;;;;;;;11.60;7.70;;;;;;;17.08;70.28;101986.63;5048510;28;20505;-91
2022/11/03 11:46:05;;;;;;;15.40;7.97;;;;;;;17.26;69.72;101987.50;5048885;28;20025;-90
2022/11/03 11:48:32;;;;;;;12.40;7.43;;;;;;;17.13;69.92;101971.03;5034709;28;20105;-91
2022/11/03 11:50:57;;;;;;;;;;;;;;;17.20;69.93;101983.66;5024970;28;20028;-82
2022/11/03 11:53:24;;;;;;;11.20;7.00;;;;;;;17.29;69.55;101981.44;5040461;28;19912;-83
2022/11/03 11:55:58;;;;;;;11.38;7.70;;;;;;;17.35;69.37;101978.19;5039230;28;20083;-83
2022/11/03 11:58:34;;;;;;;12.50;7.63;;;;;;;17.32;69.52;101983.34;5032827;28;20020;-83
2022/11/03 12:01:17;;;;;;;11.27;7.30;;;;;;;17.33;69.14;101964.91;5019397;28;20036;-83
2022/11/03 12:03:44;;;;;;;12.45;7.88;;;;;;;17.29;69.42;101963.88;5050005;28;20357;-83
2022/11/03 12:06:11;;;;;;;12.75;7.88;;;;;;;17.36;69.61;101969.44;5048819;28;20059;-83
2022/11/03 12:08:37;;;;;;;13.98;8.00;;;;;;;17.35;69.44;101967.63;5052992;28;20037;-83
2022/11/03 12:11:04;;;;;;;11.82;8.10;;;;;;;17.39;69.36;101964.28;5052998;28;20021;-83
2022/11/03 12:13:52;;;;;;;12.15;7.18;;;;;;;17.39;69.43;101967.81;5060669;28;20025;-83
2022/11/03 12:16:34;;;;;;;12.45;7.68;;;;;;;17.31;69.40;101966.56;5044374;28;20511;-82